Dulzura (157) Station Data

Red Flag Warning: No
Fire Weather Zone: 250
SDGE Region: Mountain Empire
Lat/Lon: 32.615/-116.758

Observations

Time Wind Speed/Gust Temp(F) RH Fuel Moist Fuel Temp(F) Dewpt(F) Tmax(F) Tmin(F) Accum Precip 10-min Precip SL Press(mb)
5/24 8:30am 120 2 G 4 66° 62% - - 52° 67.1° 53° - - 1012.0
5/24 8:20am 110 5 G 9 65° 57% - - 50° 66.2° 53° - - 1012.0
5/24 8:10am 120 4 G 8 65° 56% - - 49° 66.2° 53° - - 1012.0
5/24 8:00am 114 4 G 8 64° 60% - - 49° 64.7° 53° - - 1012.0
5/24 7:50am 116 4 G 7 64° 61% - - 50° 64.3° 53° - - 1012.0
5/24 7:40am 104 2 G 4 63° 66% - - 51° 64.3° 53° - - 1013.0
5/24 7:30am 68 3 G 6 62° 70% - - 52° 64.3° 53° - - 1013.0
5/24 7:20am 190 2 G 4 60° 77% - - 52° 64.3° 53° - - 1013.0
5/24 7:10am 62 2 G 3 58° 83% - - 53° 64.3° 53° - - 1013.0
5/24 7:00am 322 4 G 9 56° 92% - - 54° 64.3° 53° - - 1013.0
5/24 6:50am 304 7 G 9 54° 95% - - 53° 64.3° 53° - - 1013.0
5/24 6:40am 335 9 G 12 54° 96% - - 52° 64.3° 53° - - 1014.0
5/24 6:30am 346 6 G 11 53° 95% - - 52° 64.3° 53° - - 1014.0
5/24 6:20am 75 4 G 8 54° 94% - - 52° 64.3° 53.4° - - 1013.0
5/24 6:10am 164 8 G 14 57° 77% - - 49° 64.3° 53.5° - - 1013.0
5/24 6:00am 106 7 G 11 62° 56% - - 46° 64.3° 55.4° - - 1012.0
5/24 5:50am 114 6 G 11 61° 56% - - 46° 64.3° 55.4° - - 1012.0
5/24 5:40am 89 5 G 8 61° 58% - - 46° 64.3° 55.4° - - 1012.0
5/24 5:30am 117 5 G 10 60° 60% - - 47° 64.3° 55.4° - - 1012.0
5/24 5:20am 142 4 G 11 59° 65% - - 48° 64.3° 55.4° - - 1012.0
5/24 5:10am 102 5 G 9 59° 67% - - 48° 64.3° 55.4° - - 1012.0
5/24 5:00am 124 6 G 11 59° 70% - - 49° 64.3° 55.4° - - 1012.0
5/24 4:50am 110 4 G 9 58° 74% - - 50° 64.3° 55.4° - - 1013.0
5/24 4:40am 118 4 G 8 59° 75% - - 51° 64.3° 55.4° - - 1013.0
5/24 4:30am 119 5 G 9 59° 76% - - 51° 64.3° 55.4° - - 1013.0
5/24 4:20am 131 4 G 6 58° 80% - - 52° 64.3° 55.4° - - 1013.0
5/24 4:10am 121 4 G 6 57° 82% - - 52° 64.3° 55.4° - - 1013.0
5/24 4:00am 178 1 G 5 56° 87% - - 52° 64.3° 55.4° - - 1013.0
5/24 3:50am 342 1 G 3 56° 88% - - 53° 64.3° 55.4° - - 1013.0
5/24 3:40am 338 4 G 5 56° 88% - - 53° 64.3° 55.4° - - 1013.0
5/24 3:30am 332 3 G 6 57° 84% - - 52° 64.3° 56° - - 1013.0
5/24 3:20am 54 1 G 3 58° 83% - - 53° 64.3° 57.4° - - 1013.0
5/24 3:10am 75 1 G 2 59° 81% - - 53° 64.3° 58° - - 1013.0
5/24 3:00am 74 2 G 4 59° 76% - - 52° 64.3° 58.5° - - 1013.0
5/24 2:50am 153 2 G 4 61° 75% - - 53° 64.3° 60.3° - - 1013.0
5/24 2:40am 169 2 G 3 61° 73% - - 52° 64.3° 60.3° - - 1013.0
5/24 2:30am 106 3 G 7 62° 67% - - 51° 64.3° 60.3° - - 1013.0
5/24 2:20am 104 3 G 6 63° 66% - - 51° 64.3° 60.3° - - 1012.0
5/24 2:10am 63 3 G 6 62° 69% - - 52° 64.3° 60.3° - - 1013.0
5/24 2:00am 67 3 G 8 63° 69% - - 53° 64.3° 60.3° - - 1013.0
5/24 1:50am 113 3 G 6 63° 69% - - 53° 64.3° 60.3° - - 1013.0
5/24 1:40am 122 2 G 4 63° 70% - - 53° 64.3° 60.3° - - 1013.0
5/24 1:30am 121 3 G 7 63° 71% - - 54° 64.3° 60.3° - - 1013.0
5/24 1:20am 156 2 G 4 62° 76% - - 54° 64.3° 60.3° - - 1013.0
5/24 1:10am 87 2 G 3 62° 76% - - 54° 64.3° 60.5° - - 1014.0
5/24 1:00am 92 2 G 5 63° 74% - - 54° 64.3° 62.1° - - 1014.0
5/24 12:50am 106 4 G 7 63° 74% - - 55° 64.3° 62.1° - - 1014.0
5/24 12:40am 112 3 G 6 64° 74% - - 55° 64.3° 62.1° - - 1014.0
5/24 12:30am 113 2 G 4 63° 75% - - 55° 64.3° 62.1° - - 1014.0
5/24 12:20am 68 0 G 2 63° 76% - - 55° 63.6° 62.1° - - 1014.0
5/24 12:10am 37 0 G 1 63° 75% - - 55° 63.6° 62.6° - - 1014.0
5/24 12:00am 39 1 G 2 63° 74% - - 54° 90.3° 59° - - 1014.0
5/23 11:50pm 117 1 G 3 64° 74% - - 55° 90.3° 59° - - 1014.0
5/23 11:40pm 8 0 G 2 64° 73% - - 55° 90.3° 59° - - 1014.0
5/23 11:30pm 341 0 G 1 64° 74% - - 55° 90.3° 59° - - 1014.0
5/23 11:20pm 54 1 G 2 64° 73% - - 55° 90.3° 59° - - 1014.0
5/23 11:10pm 108 1 G 2 65° 69% - - 55° 90.3° 59° - - 1014.0
5/23 11:00pm 179 1 G 2 66° 68% - - 55° 90.3° 59° - - 1014.0
5/23 10:50pm 29 1 G 1 66° 68% - - 55° 90.3° 59° - - 1014.0
5/23 10:40pm 360 1 G 3 66° 69% - - 55° 90.3° 59° - - 1014.0
5/23 10:30pm 316 2 G 3 66° 69% - - 55° 90.3° 59° - - 1014.0
5/23 10:20pm 331 2 G 4 67° 68% - - 56° 90.3° 59° - - 1014.0
5/23 10:10pm 340 4 G 5 66° 68% - - 56° 90.3° 59° - - 1014.0
5/23 10:00pm 328 4 G 5 66° 69% - - 56° 90.3° 59° - - 1014.0
5/23 9:50pm 330 4 G 5 66° 69% - - 56° 90.3° 59° - - 1014.0
5/23 9:40pm 344 5 G 6 66° 68% - - 56° 90.3° 59° - - 1014.0
5/23 9:30pm 335 5 G 8 67° 66% - - 55° 90.3° 59° - - 1014.0
5/23 9:20pm 321 6 G 8 67° 66% - - 55° 90.3° 59° - - 1014.0
5/23 9:10pm 317 6 G 8 68° 65% - - 55° 90.3° 59° - - 1014.0
5/23 9:00pm 313 6 G 7 68° 65% - - 56° 90.3° 59° - - 1014.0
5/23 8:50pm 309 6 G 7 68° 65% - - 56° 90.3° 59° - - 1014.0
5/23 8:40pm 312 5 G 7 69° 63% - - 56° 90.3° 59° - - 1014.0
5/23 8:30pm 326 5 G 6 70° 62% - - 56° 90.3° 59° - - 1013.0
5/23 8:20pm 332 5 G 7 71° 60% - - 56° 90.3° 59° - - 1013.0
5/23 8:10pm 322 4 G 6 72° 59% - - 56° 90.3° 59° - - 1013.0
5/23 8:00pm 336 5 G 6 72° 57% - - 56° 90.3° 59° - - 1013.0
5/23 7:50pm 332 5 G 8 73° 56% - - 56° 90.3° 59° - - 1013.0
5/23 7:40pm 320 6 G 9 74° 54% - - 56° 90.3° 59° - - 1012.0
5/23 7:30pm 312 7 G 10 75° 52% - - 56° 90.3° 59° - - 1012.0
5/23 7:20pm 317 8 G 11 75° 51% - - 56° 90.3° 59° - - 1012.0
5/23 7:10pm 323 7 G 10 76° 50% - - 56° 90.3° 59° - - 1012.0
5/23 7:00pm 330 9 G 12 76° 50% - - 56° 90.3° 59° - - 1012.0
5/23 6:50pm 332 10 G 14 76° 49% - - 56° 90.3° 59° - - 1012.0
5/23 6:40pm 331 11 G 15 77° 47% - - 56° 90.3° 59° - - 1012.0
5/23 6:30pm 317 10 G 15 78° 45% - - 55° 90.3° 59° - - 1012.0
5/23 6:20pm 324 9 G 14 79° 43% - - 55° 90.3° 59° - - 1012.0
5/23 6:10pm 313 7 G 13 80° 42% - - 55° 90.3° 59° - - 1012.0
5/23 6:00pm 327 7 G 12 81° 40% - - 54° 90.3° 59° - - 1012.0
5/23 5:50pm 310 7 G 12 81° 39% - - 54° 90.3° 59° - - 1012.0
5/23 5:40pm 317 7 G 13 82° 39% - - 54° 90.3° 59° - - 1012.0
5/23 5:30pm 310 7 G 14 82° 39% - - 55° 90.3° 59° - - 1012.0
5/23 5:20pm 300 7 G 12 82° 39% - - 55° 90.3° 59° - - 1012.0
5/23 5:10pm 298 9 G 15 82° 40% - - 55° 90.3° 59° - - 1012.0
5/23 5:00pm 300 9 G 16 83° 40% - - 56° 90.3° 59° - - 1012.0
5/23 4:50pm 300 9 G 17 83° 40% - - 56° 90.3° 59° - - 1012.0
5/23 4:40pm 302 9 G 16 83° 39% - - 56° 90.3° 59° - - 1012.0
5/23 4:30pm 307 9 G 17 83° 39% - - 55° 90.3° 59° - - 1012.0
5/23 4:20pm 300 10 G 18 83° 40% - - 56° 90.3° 59° - - 1012.0
5/23 4:10pm 308 12 G 20 83° 38% - - 54° 90.3° 59° - - 1012.0
5/23 4:00pm 302 13 G 21 82° 38% - - 54° 90.3° 59° - - 1012.0
5/23 3:50pm 310 13 G 18 82° 40% - - 55° 90.3° 59° - - 1012.0
5/23 3:40pm 313 12 G 19 82° 40% - - 55° 90.3° 59° - - 1013.0
5/23 3:30pm 317 12 G 17 81° 44% - - 57° 90.3° 59° - - 1013.0
5/23 3:20pm 320 12 G 18 80° 47% - - 58° 90.3° 59° - - 1013.0
5/23 3:10pm 330 11 G 17 79° 49% - - 59° 90.3° 59° - - 1013.0
5/23 3:00pm 318 12 G 18 79° 50% - - 59° 90.3° 59° - - 1013.0
5/23 2:50pm 317 12 G 19 78° 51% - - 59° 90.3° 59° - - 1013.0
5/23 2:40pm 316 13 G 21 78° 51% - - 59° 90.3° 59° - - 1013.0
5/23 2:30pm 309 13 G 19 78° 51% - - 59° 90.3° 59° - - 1013.0
5/23 2:20pm 313 12 G 18 78° 51% - - 59° 90.3° 59° - - 1013.0
5/23 2:10pm 311 14 G 19 78° 52% - - 59° 90.3° 59° - - 1013.0
5/23 2:00pm 317 12 G 18 78° 51% - - 59° 90.3° 59° - - 1013.0
5/23 1:50pm 320 13 G 19 77° 52% - - 58° 90.3° 59° - - 1013.0
5/23 1:40pm 312 14 G 20 77° 52% - - 58° 90.3° 59° - - 1013.0
5/23 1:30pm 314 14 G 20 77° 51% - - 58° 90.3° 59° - - 1013.0
5/23 1:20pm 316 13 G 19 78° 50% - - 58° 90.3° 59° - - 1013.0
5/23 1:10pm 313 14 G 20 78° 50% - - 58° 90.3° 59° - - 1013.0
5/23 1:00pm 313 13 G 19 79° 49% - - 58° 90.3° 59° - - 1013.0
5/23 12:50pm 332 14 G 19 79° 48% - - 58° 90.3° 59° - - 1013.0
5/23 12:40pm 321 14 G 22 80° 45% - - 57° 90.3° 59° - - 1013.0
5/23 12:30pm 314 14 G 20 82° 43% - - 57° 90.3° 59° - - 1013.0
5/23 12:20pm 324 12 G 17 84° 39% - - 57° 90.3° 59° - - 1012.0
5/23 12:10pm 332 12 G 20 84° 37% - - 56° 90.3° 59° - - 1012.0
5/23 12:00pm 318 11 G 16 85° 34% - - 54° 90.3° 59° - - 1012.0
5/23 11:50am 323 11 G 18 86° 33% - - 53° 90.3° 59° - - 1012.0
5/23 11:40am 326 10 G 17 87° 30% - - 52° 90.3° 59° - - 1012.0
5/23 11:30am 322 10 G 14 89° 27% - - 50° 90.3° 59° - - 1012.0
5/23 11:20am 334 8 G 13 89° 24% - - 48° 90.3° 59° - - 1012.0
5/23 11:10am 317 6 G 11 89° 24% - - 48° 90.3° 59° - - 1012.0
5/23 11:00am 293 5 G 12 89° 23% - - 46° 90.3° 59° - - 1012.0
5/23 10:50am 245 3 G 6 89° 22% - - 45° 89.8° 59° - - 1012.0
5/23 10:40am 267 4 G 7 88° 22% - - 44° 89.5° 59° - - 1012.0
5/23 10:30am 308 4 G 8 88° 23% - - 45° 88.8° 59° - - 1013.0
5/23 10:20am 2 2 G 6 88° 23% - - 45° 88.3° 59° - - 1013.0
5/23 10:10am 134 2 G 4 86° 24% - - 45° 87.8° 59° - - 1013.0
5/23 10:00am 71 3 G 7 85° 24% - - 44° 86.5° 59° - - 1013.0
5/23 9:50am 99 3 G 5 84° 24% - - 43° 85.1° 59° - - 1013.0
5/23 9:40am 97 5 G 8 83° 24% - - 42° 84.2° 59° - - 1013.0
5/23 9:30am 103 4 G 7 82° 25% - - 42° 82.8° 59° - - 1013.0
5/23 9:20am 110 4 G 7 81° 26% - - 42° 81.8° 59° - - 1013.0
5/23 9:10am 118 3 G 6 80° 29% - - 45° 81° 59° - - 1014.0
5/23 9:00am 117 3 G 5 78° 32% - - 46° 78.5° 59° - - 1014.0
5/23 8:50am 129 4 G 7 77° 32% - - 44° 77.3° 59° - - 1014.0
5/23 8:40am 134 4 G 7 76° 33% - - 44° 76.8° 59° - - 1014.0
5/23 8:30am 119 4 G 7 75° 34% - - 45° 75.6° 59° - - 1014.0
5/23 8:20am 120 3 G 6 73° 35% - - 44° 75° 59° - - 1014.0
5/23 8:10am 117 3 G 6 72° 38% - - 45° 73.1° 59° - - 1014.0
5/23 8:00am 134 3 G 5 71° 39% - - 45° 71.7° 59° - - 1015.0
5/23 7:50am 116 3 G 6 69° 40% - - 44° 70.4° 59° - - 1015.0
5/23 7:40am 120 3 G 6 69° 41% - - 44° 69.1° 59° - - 1015.0
5/23 7:30am 98 2 G 3 67° 45% - - 46° 68.9° 59° - - 1015.0
5/23 7:20am 114 2 G 4 66° 47% - - 45° 67° 59° - - 1015.0
5/23 7:10am 80 3 G 5 65° 46% - - 44° 65.9° 59° - - 1015.0
5/23 7:00am 71 3 G 4 65° 46% - - 43° 65.8° 59° - - 1015.0
5/23 6:50am 96 3 G 5 64° 47% - - 43° 65.8° 59° - - 1015.0
5/23 6:40am 100 3 G 5 64° 46% - - 43° 65.8° 59° - - 1014.0
5/23 6:30am 82 3 G 5 63° 46% - - 42° 65.8° 59° - - 1014.0
5/23 6:20am 108 3 G 8 63° 47% - - 42° 65.8° 59° - - 1014.0
5/23 6:10am 102 3 G 8 64° 46% - - 43° 65.8° 59° - - 1014.0
5/23 6:00am 135 1 G 4 64° 46% - - 42° 65.8° 59° - - 1014.0